sensor_id;sensor_type;location;lat;lon;timestamp;temperature;humidity
63047;DHT22;62025;39.238;9.126;2022-11-03T00:02:00;20.50;75.00
63047;DHT22;62025;39.238;9.126;2022-11-03T00:04:26;20.60;74.80
63047;DHT22;62025;39.238;9.126;2022-11-03T00:06:53;20.70;74.20
63047;DHT22;62025;39.238;9.126;2022-11-03T00:09:21;20.70;74.00
63047;DHT22;62025;39.238;9.126;2022-11-03T00:11:49;20.50;74.30
63047;DHT22;62025;39.238;9.126;2022-11-03T00:14:16;20.50;74.50
63047;DHT22;62025;39.238;9.126;2022-11-03T00:16:43;20.50;74.60
63047;DHT22;62025;39.238;9.126;2022-11-03T00:19:10;20.40;74.60
63047;DHT22;62025;39.238;9.126;2022-11-03T00:21:37;20.40;74.40
63047;DHT22;62025;39.238;9.126;2022-11-03T00:24:03;20.30;74.60
63047;DHT22;62025;39.238;9.126;2022-11-03T00:26:31;20.30;74.50
63047;DHT22;62025;39.238;9.126;2022-11-03T00:29:00;20.30;74.50
63047;DHT22;62025;39.238;9.126;2022-11-03T00:31:33;20.30;74.80
63047;DHT22;62025;39.238;9.126;2022-11-03T00:34:00;20.30;74.30
63047;DHT22;62025;39.238;9.126;2022-11-03T00:36:29;20.40;74.20
63047;DHT22;62025;39.238;9.126;2022-11-03T00:38:58;20.30;74.40
63047;DHT22;62025;39.238;9.126;2022-11-03T00:41:25;20.30;74.50
63047;DHT22;62025;39.238;9.126;2022-11-03T00:43:52;20.30;74.30
63047;DHT22;62025;39.238;9.126;2022-11-03T00:46:19;20.30;74.60
63047;DHT22;62025;39.238;9.126;2022-11-03T00:48:46;20.30;74.60
63047;DHT22;62025;39.238;9.126;2022-11-03T00:51:15;20.30;74.60
63047;DHT22;62025;39.238;9.126;2022-11-03T00:53:55;20.30;74.60
63047;DHT22;62025;39.238;9.126;2022-11-03T00:56:42;20.30;74.50
63047;DHT22;62025;39.238;9.126;2022-11-03T00:59:09;20.30;74.60
63047;DHT22;62025;39.238;9.126;2022-11-03T01:01:44;20.30;74.50
63047;DHT22;62025;39.238;9.126;2022-11-03T01:04:10;20.30;74.30
63047;DHT22;62025;39.238;9.126;2022-11-03T01:06:57;20.30;74.40
63047;DHT22;62025;39.238;9.126;2022-11-03T01:09:37;20.30;74.60
63047;DHT22;62025;39.238;9.126;2022-11-03T01:12:17;20.20;74.40
63047;DHT22;62025;39.238;9.126;2022-11-03T01:14:51;20.30;74.30
63047;DHT22;62025;39.238;9.126;2022-11-03T01:17:19;20.20;74.40
63047;DHT22;62025;39.238;9.126;2022-11-03T01:19:46;20.20;74.40
63047;DHT22;62025;39.238;9.126;2022-11-03T01:22:13;20.10;74.60
63047;DHT22;62025;39.238;9.126;2022-11-03T01:24:40;20.10;74.50
63047;DHT22;62025;39.238;9.126;2022-11-03T01:27:13;20.10;74.60
63047;DHT22;62025;39.238;9.126;2022-11-03T01:29:41;20.20;74.30
63047;DHT22;62025;39.238;9.126;2022-11-03T01:32:07;20.20;74.20
63047;DHT22;62025;39.238;9.126;2022-11-03T01:34:33;20.20;74.30
63047;DHT22;62025;39.238;9.126;2022-11-03T01:37:00;20.20;74.30
63047;DHT22;62025;39.238;9.126;2022-11-03T01:39:26;20.20;74.40
63047;DHT22;62025;39.238;9.126;2022-11-03T01:41:52;20.20;74.10
63047;DHT22;62025;39.238;9.126;2022-11-03T01:44:22;20.10;74.30
63047;DHT22;62025;39.238;9.126;2022-11-03T01:46:58;20.20;74.20
63047;DHT22;62025;39.238;9.126;2022-11-03T01:49:40;20.10;74.20
63047;DHT22;62025;39.238;9.126;2022-11-03T01:54:50;19.90;74.80
63047;DHT22;62025;39.238;9.126;2022-11-03T01:57:28;20.00;74.60
63047;DHT22;62025;39.238;9.126;2022-11-03T01:59:59;20.10;74.20
63047;DHT22;62025;39.238;9.126;2022-11-03T02:02:26;20.00;74.60
63047;DHT22;62025;39.238;9.126;2022-11-03T02:04:53;19.90;74.60
63047;DHT22;62025;39.238;9.126;2022-11-03T02:07:32;19.90;74.70
63047;DHT22;62025;39.238;9.126;2022-11-03T02:10:01;20.00;74.60
63047;DHT22;62025;39.238;9.126;2022-11-03T02:12:28;20.00;74.60
63047;DHT22;62025;39.238;9.126;2022-11-03T02:14:59;19.90;74.90
63047;DHT22;62025;39.238;9.126;2022-11-03T02:17:29;19.90;74.90
63047;DHT22;62025;39.238;9.126;2022-11-03T02:20:02;19.90;75.00
63047;DHT22;62025;39.238;9.126;2022-11-03T02:26:12;19.90;75.00
63047;DHT22;62025;39.238;9.126;2022-11-03T02:28:19;20.00;74.70
63047;DHT22;62025;39.238;9.126;2022-11-03T02:36:39;19.80;75.20
63047;DHT22;62025;39.238;9.126;2022-11-03T02:39:18;19.90;75.00
63047;DHT22;62025;39.238;9.126;2022-11-03T02:41:46;19.90;74.60
63047;DHT22;62025;39.238;9.126;2022-11-03T02:44:16;20.00;74.40
63047;DHT22;62025;39.238;9.126;2022-11-03T02:46:46;19.90;74.90
63047;DHT22;62025;39.238;9.126;2022-11-03T02:49:14;19.90;75.10
63047;DHT22;62025;39.238;9.126;2022-11-03T02:51:40;19.90;75.30
63047;DHT22;62025;39.238;9.126;2022-11-03T02:54:33;19.80;75.40
63047;DHT22;62025;39.238;9.126;2022-11-03T02:57:19;19.80;75.40
63047;DHT22;62025;39.238;9.126;2022-11-03T02:59:59;19.80;75.40
63047;DHT22;62025;39.238;9.126;2022-11-03T03:02:40;19.90;75.20
63047;DHT22;62025;39.238;9.126;2022-11-03T03:05:13;19.80;75.60
63047;DHT22;62025;39.238;9.126;2022-11-03T03:07:45;19.90;75.30
63047;DHT22;62025;39.238;9.126;2022-11-03T03:10:19;19.90;74.80
63047;DHT22;62025;39.238;9.126;2022-11-03T03:12:50;19.80;74.90
63047;DHT22;62025;39.238;9.126;2022-11-03T03:15:19;19.80;74.90
63047;DHT22;62025;39.238;9.126;2022-11-03T03:18:25;19.70;75.20
63047;DHT22;62025;39.238;9.126;2022-11-03T03:21:30;19.70;75.10
63047;DHT22;62025;39.238;9.126;2022-11-03T03:24:05;19.70;75.20
63047;DHT22;62025;39.238;9.126;2022-11-03T03:26:43;19.80;74.90
63047;DHT22;62025;39.238;9.126;2022-11-03T03:29:17;19.70;75.00
63047;DHT22;62025;39.238;9.126;2022-11-03T03:31:55;19.70;75.00
63047;DHT22;62025;39.238;9.126;2022-11-03T03:34:25;19.70;75.00
63047;DHT22;62025;39.238;9.126;2022-11-03T03:36:54;19.60;75.00
63047;DHT22;62025;39.238;9.126;2022-11-03T03:39:24;19.60;75.00
63047;DHT22;62025;39.238;9.126;2022-11-03T03:41:53;19.70;75.10
63047;DHT22;62025;39.238;9.126;2022-11-03T03:44:21;19.60;75.20
63047;DHT22;62025;39.238;9.126;2022-11-03T03:46:51;19.60;75.40
63047;DHT22;62025;39.238;9.126;2022-11-03T03:49:20;19.60;75.30
63047;DHT22;62025;39.238;9.126;2022-11-03T03:51:47;19.70;75.10
63047;DHT22;62025;39.238;9.126;2022-11-03T03:54:14;19.60;75.00
63047;DHT22;62025;39.238;9.126;2022-11-03T03:57:01;19.60;75.10
63047;DHT22;62025;39.238;9.126;2022-11-03T03:59:29;19.60;74.90
63047;DHT22;62025;39.238;9.126;2022-11-03T04:01:55;19.50;75.10
63047;DHT22;62025;39.238;9.126;2022-11-03T04:04:21;19.60;75.20
63047;DHT22;62025;39.238;9.126;2022-11-03T04:06:47;19.60;75.10
63047;DHT22;62025;39.238;9.126;2022-11-03T04:09:13;19.60;75.20
63047;DHT22;62025;39.238;9.126;2022-11-03T04:11:39;19.60;75.20
63047;DHT22;62025;39.238;9.126;2022-11-03T04:14:24;19.50;75.40
63047;DHT22;62025;39.238;9.126;2022-11-03T04:17:17;19.50;75.20
63047;DHT22;62025;39.238;9.126;2022-11-03T04:20:05;19.60;75.00
63047;DHT22;62025;39.238;9.126;2022-11-03T04:22:53;19.60;75.10
63047;DHT22;62025;39.238;9.126;2022-11-03T04:25:19;19.50;75.20
63047;DHT22;62025;39.238;9.126;2022-11-03T04:27:45;19.40;75.40
63047;DHT22;62025;39.238;9.126;2022-11-03T04:32:37;19.50;75.30
63047;DHT22;62025;39.238;9.126;2022-11-03T04:35:29;19.50;75.00
63047;DHT22;62025;39.238;9.126;2022-11-03T04:38:02;19.40;75.10
63047;DHT22;62025;39.238;9.126;2022-11-03T04:40:34;19.40;75.20
63047;DHT22;62025;39.238;9.126;2022-11-03T04:43:04;19.40;75.20
63047;DHT22;62025;39.238;9.126;2022-11-03T04:45:43;19.40;75.00
63047;DHT22;62025;39.238;9.126;2022-11-03T04:48:15;19.40;75.30
63047;DHT22;62025;39.238;9.126;2022-11-03T04:50:46;19.40;75.30
63047;DHT22;62025;39.238;9.126;2022-11-03T04:53:16;19.40;75.20
63047;DHT22;62025;39.238;9.126;2022-11-03T04:55:44;19.40;75.10
63047;DHT22;62025;39.238;9.126;2022-11-03T04:58:21;19.40;74.90
63047;DHT22;62025;39.238;9.126;2022-11-03T05:00:55;19.30;75.10
63047;DHT22;62025;39.238;9.126;2022-11-03T05:03:25;19.40;75.00
63047;DHT22;62025;39.238;9.126;2022-11-03T05:05:52;19.40;74.80
63047;DHT22;62025;39.238;9.126;2022-11-03T05:08:19;19.40;74.80
63047;DHT22;62025;39.238;9.126;2022-11-03T05:10:46;19.40;74.70
63047;DHT22;62025;39.238;9.126;2022-11-03T05:13:24;19.40;74.50
63047;DHT22;62025;39.238;9.126;2022-11-03T05:15:52;19.40;74.50
63047;DHT22;62025;39.238;9.126;2022-11-03T05:18:32;19.40;74.40
63047;DHT22;62025;39.238;9.126;2022-11-03T05:21:14;19.40;74.10
63047;DHT22;62025;39.238;9.126;2022-11-03T05:23:47;19.30;74.30
63047;DHT22;62025;39.238;9.126;2022-11-03T05:26:38;19.30;74.40
63047;DHT22;62025;39.238;9.126;2022-11-03T05:32:31;19.30;74.10
63047;DHT22;62025;39.238;9.126;2022-11-03T05:34:56;19.20;74.00
63047;DHT22;62025;39.238;9.126;2022-11-03T05:37:31;19.30;73.70
63047;DHT22;62025;39.238;9.126;2022-11-03T05:40:22;19.30;73.60
63047;DHT22;62025;39.238;9.126;2022-11-03T05:42:58;19.30;73.40
63047;DHT22;62025;39.238;9.126;2022-11-03T05:45:30;19.30;73.30
63047;DHT22;62025;39.238;9.126;2022-11-03T05:47:59;19.30;73.10
63047;DHT22;62025;39.238;9.126;2022-11-03T05:50:29;19.20;72.90
63047;DHT22;62025;39.238;9.126;2022-11-03T05:55:57;19.20;72.90
63047;DHT22;62025;39.238;9.126;2022-11-03T05:58:40;19.10;72.80
63047;DHT22;62025;39.238;9.126;2022-11-03T06:01:19;19.00;72.90
63047;DHT22;62025;39.238;9.126;2022-11-03T06:03:48;19.10;72.80
63047;DHT22;62025;39.238;9.126;2022-11-03T06:06:22;19.10;72.70
63047;DHT22;62025;39.238;9.126;2022-11-03T06:08:50;19.00;73.00
63047;DHT22;62025;39.238;9.126;2022-11-03T06:11:35;19.00;72.80
63047;DHT22;62025;39.238;9.126;2022-11-03T06:14:04;19.00;72.80
63047;DHT22;62025;39.238;9.126;2022-11-03T06:16:47;19.00;72.90
63047;DHT22;62025;39.238;9.126;2022-11-03T06:19:41;19.20;72.60
63047;DHT22;62025;39.238;9.126;2022-11-03T06:22:33;19.30;72.40
63047;DHT22;62025;39.238;9.126;2022-11-03T06:25:22;19.30;72.20
63047;DHT22;62025;39.238;9.126;2022-11-03T06:28:03;19.40;71.90
63047;DHT22;62025;39.238;9.126;2022-11-03T06:30:32;19.40;72.00
63047;DHT22;62025;39.238;9.126;2022-11-03T06:33:03;19.40;71.80
63047;DHT22;62025;39.238;9.126;2022-11-03T06:35:38;19.60;71.70
63047;DHT22;62025;39.238;9.126;2022-11-03T06:38:13;19.70;71.40
63047;DHT22;62025;39.238;9.126;2022-11-03T06:40:42;19.70;71.30
63047;DHT22;62025;39.238;9.126;2022-11-03T06:43:18;19.80;71.20
63047;DHT22;62025;39.238;9.126;2022-11-03T06:45:54;19.90;71.00
63047;DHT22;62025;39.238;9.126;2022-11-03T06:48:27;20.00;70.80
63047;DHT22;62025;39.238;9.126;2022-11-03T06:50:54;20.00;70.50
63047;DHT22;62025;39.238;9.126;2022-11-03T06:53:27;19.90;70.70
63047;DHT22;62025;39.238;9.126;2022-11-03T06:55:55;20.20;70.40
63047;DHT22;62025;39.238;9.126;2022-11-03T06:58:26;20.40;69.80
63047;DHT22;62025;39.238;9.126;2022-11-03T07:00:59;20.40;69.60
63047;DHT22;62025;39.238;9.126;2022-11-03T07:03:31;20.40;69.50
63047;DHT22;62025;39.238;9.126;2022-11-03T07:06:19;20.20;70.30
63047;DHT22;62025;39.238;9.126;2022-11-03T07:08:52;20.10;70.70
63047;DHT22;62025;39.238;9.126;2022-11-03T07:11:27;20.40;70.00
63047;DHT22;62025;39.238;9.126;2022-11-03T07:13:57;20.50;68.90
63047;DHT22;62025;39.238;9.126;2022-11-03T07:18:58;20.70;68.10
63047;DHT22;62025;39.238;9.126;2022-11-03T07:21:40;20.80;67.90
63047;DHT22;62025;39.238;9.126;2022-11-03T07:24:22;20.90;67.40
63047;DHT22;62025;39.238;9.126;2022-11-03T07:27:20;21.20;66.90
63047;DHT22;62025;39.238;9.126;2022-11-03T07:29:50;21.40;66.40
63047;DHT22;62025;39.238;9.126;2022-11-03T07:32:23;21.70;65.50
63047;DHT22;62025;39.238;9.126;2022-11-03T07:34:52;21.70;65.20
63047;DHT22;62025;39.238;9.126;2022-11-03T07:37:21;21.80;65.80
63047;DHT22;62025;39.238;9.126;2022-11-03T07:39:49;21.90;65.00
63047;DHT22;62025;39.238;9.126;2022-11-03T07:42:23;22.10;64.60
63047;DHT22;62025;39.238;9.126;2022-11-03T07:44:52;22.20;64.70
63047;DHT22;62025;39.238;9.126;2022-11-03T07:47:24;22.30;64.40
63047;DHT22;62025;39.238;9.126;2022-11-03T07:49:53;22.50;63.90
63047;DHT22;62025;39.238;9.126;2022-11-03T07:52:22;22.80;63.30
63047;DHT22;62025;39.238;9.126;2022-11-03T07:54:50;22.70;64.00
63047;DHT22;62025;39.238;9.126;2022-11-03T07:57:27;23.00;63.60
63047;DHT22;62025;39.238;9.126;2022-11-03T08:00:00;23.40;62.90
63047;DHT22;62025;39.238;9.126;2022-11-03T08:05:16;23.40;62.50
63047;DHT22;62025;39.238;9.126;2022-11-03T08:07:42;23.60;62.00
63047;DHT22;62025;39.238;9.126;2022-11-03T08:10:08;23.70;61.90
63047;DHT22;62025;39.238;9.126;2022-11-03T08:12:34;23.80;61.60
63047;DHT22;62025;39.238;9.126;2022-11-03T08:15:01;23.80;61.50
63047;DHT22;62025;39.238;9.126;2022-11-03T08:17:26;23.80;61.70
63047;DHT22;62025;39.238;9.126;2022-11-03T08:19:52;23.90;61.50
63047;DHT22;62025;39.238;9.126;2022-11-03T08:22:18;23.80;61.00
63047;DHT22;62025;39.238;9.126;2022-11-03T08:24:44;23.80;61.30
63047;DHT22;62025;39.238;9.126;2022-11-03T08:27:10;23.80;61.70
63047;DHT22;62025;39.238;9.126;2022-11-03T08:29:36;23.90;61.00
63047;DHT22;62025;39.238;9.126;2022-11-03T08:32:02;23.80;62.00
63047;DHT22;62025;39.238;9.126;2022-11-03T08:34:29;24.10;61.80
63047;DHT22;62025;39.238;9.126;2022-11-03T08:36:55;23.90;62.40
63047;DHT22;62025;39.238;9.126;2022-11-03T08:39:21;23.80;63.90
63047;DHT22;62025;39.238;9.126;2022-11-03T08:41:47;23.90;63.70
63047;DHT22;62025;39.238;9.126;2022-11-03T08:44:13;23.70;65.20
63047;DHT22;62025;39.238;9.126;2022-11-03T08:46:39;23.40;66.40
63047;DHT22;62025;39.238;9.126;2022-11-03T08:49:05;24.10;65.00
63047;DHT22;62025;39.238;9.126;2022-11-03T08:51:31;24.20;65.40
63047;DHT22;62025;39.238;9.126;2022-11-03T08:53:57;24.30;65.40
63047;DHT22;62025;39.238;9.126;2022-11-03T08:56:23;24.20;65.00
63047;DHT22;62025;39.238;9.126;2022-11-03T08:58:49;23.90;66.50
63047;DHT22;62025;39.238;9.126;2022-11-03T09:01:15;23.40;68.70
63047;DHT22;62025;39.238;9.126;2022-11-03T09:03:42;23.10;70.30
63047;DHT22;62025;39.238;9.126;2022-11-03T09:06:08;23.30;70.10
63047;DHT22;62025;39.238;9.126;2022-11-03T09:08:34;23.30;70.30
63047;DHT22;62025;39.238;9.126;2022-11-03T09:11:00;23.10;70.90
63047;DHT22;62025;39.238;9.126;2022-11-03T09:13:26;22.90;72.50
63047;DHT22;62025;39.238;9.126;2022-11-03T09:15:52;22.90;72.60
63047;DHT22;62025;39.238;9.126;2022-11-03T09:18:19;22.80;73.60
63047;DHT22;62025;39.238;9.126;2022-11-03T09:20:45;23.10;72.90
63047;DHT22;62025;39.238;9.126;2022-11-03T09:23:10;23.30;72.50
63047;DHT22;62025;39.238;9.126;2022-11-03T09:25:37;22.90;73.80
63047;DHT22;62025;39.238;9.126;2022-11-03T09:28:03;23.00;73.70
63047;DHT22;62025;39.238;9.126;2022-11-03T09:30:29;23.40;73.20
63047;DHT22;62025;39.238;9.126;2022-11-03T09:32:55;23.80;71.60
63047;DHT22;62025;39.238;9.126;2022-11-03T09:35:21;23.80;71.80
63047;DHT22;62025;39.238;9.126;2022-11-03T09:37:47;23.60;72.50
63047;DHT22;62025;39.238;9.126;2022-11-03T09:40:14;23.40;73.50
63047;DHT22;62025;39.238;9.126;2022-11-03T09:42:41;23.20;74.70
63047;DHT22;62025;39.238;9.126;2022-11-03T09:45:08;22.70;76.60
63047;DHT22;62025;39.238;9.126;2022-11-03T09:47:36;22.70;77.00
63047;DHT22;62025;39.238;9.126;2022-11-03T09:50:09;22.80;77.20
63047;DHT22;62025;39.238;9.126;2022-11-03T09:52:38;22.90;77.00
63047;DHT22;62025;39.238;9.126;2022-11-03T09:55:12;22.90;77.00
63047;DHT22;62025;39.238;9.126;2022-11-03T09:57:40;23.20;76.10
63047;DHT22;62025;39.238;9.126;2022-11-03T10:00:21;23.40;75.50
63047;DHT22;62025;39.238;9.126;2022-11-03T10:02:49;22.90;76.60
63047;DHT22;62025;39.238;9.126;2022-11-03T10:05:25;22.80;77.10
63047;DHT22;62025;39.238;9.126;2022-11-03T10:07:55;22.90;76.90
63047;DHT22;62025;39.238;9.126;2022-11-03T10:10:23;23.20;76.40
63047;DHT22;62025;39.238;9.126;2022-11-03T10:12:50;23.30;75.80
63047;DHT22;62025;39.238;9.126;2022-11-03T10:15:19;23.30;75.70
63047;DHT22;62025;39.238;9.126;2022-11-03T10:17:47;23.50;75.10
63047;DHT22;62025;39.238;9.126;2022-11-03T10:20:17;23.40;75.40
63047;DHT22;62025;39.238;9.126;2022-11-03T10:22:46;23.40;75.20
63047;DHT22;62025;39.238;9.126;2022-11-03T10:28:12;23.50;74.80
63047;DHT22;62025;39.238;9.126;2022-11-03T10:30:57;23.10;75.90
63047;DHT22;62025;39.238;9.126;2022-11-03T10:33:36;23.10;76.30
63047;DHT22;62025;39.238;9.126;2022-11-03T10:38:41;23.10;76.10
63047;DHT22;62025;39.238;9.126;2022-11-03T10:43:42;23.10;75.70
63047;DHT22;62025;39.238;9.126;2022-11-03T10:46:19;23.20;76.30
63047;DHT22;62025;39.238;9.126;2022-11-03T10:49:14;23.20;76.00
63047;DHT22;62025;39.238;9.126;2022-11-03T10:51:43;23.20;75.70
63047;DHT22;62025;39.238;9.126;2022-11-03T10:54:14;23.30;75.70
63047;DHT22;62025;39.238;9.126;2022-11-03T10:56:42;23.30;75.90
63047;DHT22;62025;39.238;9.126;2022-11-03T11:01:43;23.00;76.60
63047;DHT22;62025;39.238;9.126;2022-11-03T11:04:14;22.90;77.60
63047;DHT22;62025;39.238;9.126;2022-11-03T11:06:41;22.90;77.20
63047;DHT22;62025;39.238;9.126;2022-11-03T11:09:10;22.90;77.20
63047;DHT22;62025;39.238;9.126;2022-11-03T11:11:37;22.90;77.40
63047;DHT22;62025;39.238;9.126;2022-11-03T11:17:44;22.80;77.60
63047;DHT22;62025;39.238;9.126;2022-11-03T11:22:48;22.90;78.20
63047;DHT22;62025;39.238;9.126;2022-11-03T11:25:16;22.90;77.70
63047;DHT22;62025;39.238;9.126;2022-11-03T11:37:40;22.90;78.30
63047;DHT22;62025;39.238;9.126;2022-11-03T11:40:48;22.80;78.30
63047;DHT22;62025;39.238;9.126;2022-11-03T11:49:14;22.70;78.70
63047;DHT22;62025;39.238;9.126;2022-11-03T11:51:41;22.60;78.80
63047;DHT22;62025;39.238;9.126;2022-11-03T11:54:11;22.70;78.90
63047;DHT22;62025;39.238;9.126;2022-11-03T11:56:46;22.60;79.00
63047;DHT22;62025;39.238;9.126;2022-11-03T11:59:22;22.50;79.30
63047;DHT22;62025;39.238;9.126;2022-11-03T12:01:51;22.60;79.20
63047;DHT22;62025;39.238;9.126;2022-11-03T12:04:22;22.60;78.90
63047;DHT22;62025;39.238;9.126;2022-11-03T12:06:50;22.60;78.40
63047;DHT22;62025;39.238;9.126;2022-11-03T12:09:21;22.50;78.60
63047;DHT22;62025;39.238;9.126;2022-11-03T12:11:51;22.60;78.40
63047;DHT22;62025;39.238;9.126;2022-11-03T12:14:39;22.40;79.10
63047;DHT22;62025;39.238;9.126;2022-11-03T12:19:53;22.40;79.80
63047;DHT22;62025;39.238;9.126;2022-11-03T12:29:50;22.40;79.40
63047;DHT22;62025;39.238;9.126;2022-11-03T12:32:21;22.40;79.30
63047;DHT22;62025;39.238;9.126;2022-11-03T12:34:47;22.50;79.30
63047;DHT22;62025;39.238;9.126;2022-11-03T12:37:13;22.50;78.90
63047;DHT22;62025;39.238;9.126;2022-11-03T12:39:39;22.50;78.70
63047;DHT22;62025;39.238;9.126;2022-11-03T12:42:06;22.40;79.30
63047;DHT22;62025;39.238;9.126;2022-11-03T12:44:32;22.50;79.30
63047;DHT22;62025;39.238;9.126;2022-11-03T12:46:59;22.50;78.90
63047;DHT22;62025;39.238;9.126;2022-11-03T12:49:26;22.60;78.90
63047;DHT22;62025;39.238;9.126;2022-11-03T12:51:52;22.50;78.50
63047;DHT22;62025;39.238;9.126;2022-11-03T12:54:18;22.40;79.00
63047;DHT22;62025;39.238;9.126;2022-11-03T12:56:44;22.40;79.40
63047;DHT22;62025;39.238;9.126;2022-11-03T12:59:10;22.30;79.70
63047;DHT22;62025;39.238;9.126;2022-11-03T13:01:36;22.40;79.70
63047;DHT22;62025;39.238;9.126;2022-11-03T13:04:02;22.30;79.50
63047;DHT22;62025;39.238;9.126;2022-11-03T13:06:32;22.20;80.10
63047;DHT22;62025;39.238;9.126;2022-11-03T13:08:58;22.20;80.10
63047;DHT22;62025;39.238;9.126;2022-11-03T13:11:24;22.20;80.00
63047;DHT22;62025;39.238;9.126;2022-11-03T13:14:08;22.30;79.60
63047;DHT22;62025;39.238;9.126;2022-11-03T13:16:35;22.20;79.80
63047;DHT22;62025;39.238;9.126;2022-11-03T13:19:01;22.20;79.40
63047;DHT22;62025;39.238;9.126;2022-11-03T13:21:27;22.30;79.00
63047;DHT22;62025;39.238;9.126;2022-11-03T13:23:53;22.40;79.20
63047;DHT22;62025;39.238;9.126;2022-11-03T13:26:20;22.40;79.20
63047;DHT22;62025;39.238;9.126;2022-11-03T13:28:46;22.40;79.10
63047;DHT22;62025;39.238;9.126;2022-11-03T13:31:12;22.40;79.30
63047;DHT22;62025;39.238;9.126;2022-11-03T13:33:38;22.40;79.00
63047;DHT22;62025;39.238;9.126;2022-11-03T13:36:04;22.40;78.80
63047;DHT22;62025;39.238;9.126;2022-11-03T13:38:30;22.50;78.10
63047;DHT22;62025;39.238;9.126;2022-11-03T13:40:56;22.50;78.00
63047;DHT22;62025;39.238;9.126;2022-11-03T13:43:22;22.40;77.80
63047;DHT22;62025;39.238;9.126;2022-11-03T13:45:48;22.40;77.80
63047;DHT22;62025;39.238;9.126;2022-11-03T13:48:14;22.40;78.20
63047;DHT22;62025;39.238;9.126;2022-11-03T13:50:46;22.40;78.10
63047;DHT22;62025;39.238;9.126;2022-11-03T13:53:15;22.50;77.30
63047;DHT22;62025;39.238;9.126;2022-11-03T13:55:41;22.50;76.90
63047;DHT22;62025;39.238;9.126;2022-11-03T13:58:07;22.40;76.20
63047;DHT22;62025;39.238;9.126;2022-11-03T14:00:33;22.40;76.80
63047;DHT22;62025;39.238;9.126;2022-11-03T14:02:59;22.50;76.60
63047;DHT22;62025;39.238;9.126;2022-11-03T14:05:25;22.50;76.00
63047;DHT22;62025;39.238;9.126;2022-11-03T14:07:51;22.50;75.80
63047;DHT22;62025;39.238;9.126;2022-11-03T14:10:17;22.50;75.90
63047;DHT22;62025;39.238;9.126;2022-11-03T14:12:43;22.40;76.10
63047;DHT22;62025;39.238;9.126;2022-11-03T14:15:10;22.40;76.20
63047;DHT22;62025;39.238;9.126;2022-11-03T14:17:38;22.30;76.40
63047;DHT22;62025;39.238;9.126;2022-11-03T14:20:06;22.40;76.50
63047;DHT22;62025;39.238;9.126;2022-11-03T14:22:36;22.40;76.70
63047;DHT22;62025;39.238;9.126;2022-11-03T14:25:04;22.40;76.70
63047;DHT22;62025;39.238;9.126;2022-11-03T14:27:30;22.40;76.60
63047;DHT22;62025;39.238;9.126;2022-11-03T14:29:56;22.40;76.40
63047;DHT22;62025;39.238;9.126;2022-11-03T14:32:22;22.50;76.40
63047;DHT22;62025;39.238;9.126;2022-11-03T14:34:48;22.50;76.60
63047;DHT22;62025;39.238;9.126;2022-11-03T14:37:14;22.50;76.70
63047;DHT22;62025;39.238;9.126;2022-11-03T14:39:40;22.40;76.80
63047;DHT22;62025;39.238;9.126;2022-11-03T14:42:11;22.40;76.90
63047;DHT22;62025;39.238;9.126;2022-11-03T14:44:43;22.40;77.20
63047;DHT22;62025;39.238;9.126;2022-11-03T14:47:12;22.40;77.30
63047;DHT22;62025;39.238;9.126;2022-11-03T14:49:39;22.40;77.20
63047;DHT22;62025;39.238;9.126;2022-11-03T14:52:06;22.40;77.40
63047;DHT22;62025;39.238;9.126;2022-11-03T14:54:33;22.40;77.50
63047;DHT22;62025;39.238;9.126;2022-11-03T14:57:00;22.40;77.90
63047;DHT22;62025;39.238;9.126;2022-11-03T14:59:27;22.40;78.00
63047;DHT22;62025;39.238;9.126;2022-11-03T15:01:53;22.30;78.50
63047;DHT22;62025;39.238;9.126;2022-11-03T15:04:20;22.30;78.90
63047;DHT22;62025;39.238;9.126;2022-11-03T15:06:47;22.30;79.10
63047;DHT22;62025;39.238;9.126;2022-11-03T15:09:14;22.30;79.40
63047;DHT22;62025;39.238;9.126;2022-11-03T15:11:43;22.30;79.70
63047;DHT22;62025;39.238;9.126;2022-11-03T15:14:10;22.30;80.00
63047;DHT22;62025;39.238;9.126;2022-11-03T15:16:37;22.30;80.60
63047;DHT22;62025;39.238;9.126;2022-11-03T15:19:04;22.20;81.00
63047;DHT22;62025;39.238;9.126;2022-11-03T15:21:31;22.20;81.40
63047;DHT22;62025;39.238;9.126;2022-11-03T15:23:57;22.20;81.80
63047;DHT22;62025;39.238;9.126;2022-11-03T15:26:23;22.20;82.00
63047;DHT22;62025;39.238;9.126;2022-11-03T15:28:49;22.20;82.30
63047;DHT22;62025;39.238;9.126;2022-11-03T15:31:16;22.20;82.10
63047;DHT22;62025;39.238;9.126;2022-11-03T15:33:41;22.20;82.60
63047;DHT22;62025;39.238;9.126;2022-11-03T15:36:08;22.20;82.80
63047;DHT22;62025;39.238;9.126;2022-11-03T15:38:34;22.20;82.80
63047;DHT22;62025;39.238;9.126;2022-11-03T15:41:00;22.20;83.10
63047;DHT22;62025;39.238;9.126;2022-11-03T15:43:45;22.20;83.00
63047;DHT22;62025;39.238;9.126;2022-11-03T15:46:13;22.10;83.10
63047;DHT22;62025;39.238;9.126;2022-11-03T15:48:41;22.10;83.20
63047;DHT22;62025;39.238;9.126;2022-11-03T15:51:07;22.10;83.20
63047;DHT22;62025;39.238;9.126;2022-11-03T15:53:34;22.10;83.20
63047;DHT22;62025;39.238;9.126;2022-11-03T15:56:00;22.20;83.10
63047;DHT22;62025;39.238;9.126;2022-11-03T15:58:27;22.10;83.10
63047;DHT22;62025;39.238;9.126;2022-11-03T16:00:54;22.10;83.00
63047;DHT22;62025;39.238;9.126;2022-11-03T16:03:20;22.10;82.80
63047;DHT22;62025;39.238;9.126;2022-11-03T16:05:46;22.10;82.80
63047;DHT22;62025;39.238;9.126;2022-11-03T16:08:12;22.10;82.90
63047;DHT22;62025;39.238;9.126;2022-11-03T16:10:38;22.10;83.20
63047;DHT22;62025;39.238;9.126;2022-11-03T16:13:04;22.00;83.30
63047;DHT22;62025;39.238;9.126;2022-11-03T16:15:30;22.00;83.10
63047;DHT22;62025;39.238;9.126;2022-11-03T16:17:56;22.00;83.30
63047;DHT22;62025;39.238;9.126;2022-11-03T16:20:28;22.00;83.20
63047;DHT22;62025;39.238;9.126;2022-11-03T16:22:55;22.00;83.20
63047;DHT22;62025;39.238;9.126;2022-11-03T16:25:21;22.00;83.30
63047;DHT22;62025;39.238;9.126;2022-11-03T16:27:47;21.90;83.50
63047;DHT22;62025;39.238;9.126;2022-11-03T16:30:13;22.00;83.40
63047;DHT22;62025;39.238;9.126;2022-11-03T16:32:39;22.00;83.20
63047;DHT22;62025;39.238;9.126;2022-11-03T16:35:05;22.00;83.30
63047;DHT22;62025;39.238;9.126;2022-11-03T16:37:32;21.90;83.30
63047;DHT22;62025;39.238;9.126;2022-11-03T16:39:58;21.90;83.10
63047;DHT22;62025;39.238;9.126;2022-11-03T16:42:23;21.90;83.30
63047;DHT22;62025;39.238;9.126;2022-11-03T16:44:49;22.00;83.10
63047;DHT22;62025;39.238;9.126;2022-11-03T16:47:15;21.90;83.30
63047;DHT22;62025;39.238;9.126;2022-11-03T16:49:41;21.90;83.40
63047;DHT22;62025;39.238;9.126;2022-11-03T16:52:07;21.90;83.60
63047;DHT22;62025;39.238;9.126;2022-11-03T16:54:34;21.90;83.50
63047;DHT22;62025;39.238;9.126;2022-11-03T16:57:00;21.90;83.50
63047;DHT22;62025;39.238;9.126;2022-11-03T16:59:26;21.90;83.50